PWSweather.com
Personal Weather Stations
Station Observations
RIORANCHO
Corrales Heights, Rio Rancho, NM 87124

Corrales HeightsRio Rancho, NM 87124

Lat: 35.241928, Lon: -106.647095

Elevation: 5297

Station Type: Davis Vantage Pro 2 Plus

http://www.weatherriorancho.com

High Low Average
Temperature 60.0°F15.6°C 26.8°F-2.9°C 43.9°F6.6°C
Dew Point 34.1°F1.2°C 12.7°F-10.7°C 18.2°F-7.7°C
Winds 13.8 mph 22.2 kmh Calm Calm 1.0 mph S1.6 kmh S
Wind Gusts 23.0 mph37.0 kmh -- 2.0 mph3.2 kmh
Humidity 83% 21% 38%
Pressure 30.04 in1017.3 mb 29.80 in1009.1 mb -
Precipitation 0.00 in0.0 mm - -
Hour Temp Dew Point Humidity Winds Wind Gusts Pressure Precip Precip Rate Daily Precip Total
12:00 AM 34.7°F1.5°C 14.5°F-9.7°C 43% Calm Calm 1.2 mph1.9 kmh 30.04 in1017.3 mb - 0.00 in0.0 mm 0.00 in0.0 mm
12:10 AM 34.5°F1.4°C 14.3°F-9.8°C 43% Calm Calm -- 30.03 in1016.9 mb - 0.00 in0.0 mm 0.00 in0.0 mm
12:20 AM 34.4°F1.3°C 14.2°F-9.9°C 43% Calm Calm -- 30.03 in1016.9 mb - 0.00 in0.0 mm 0.00 in0.0 mm
12:30 AM 34.3°F1.3°C 14.1°F-9.9°C 43% Calm Calm -- 30.03 in1016.9 mb - 0.00 in0.0 mm 0.00 in0.0 mm
12:40 AM 34.2°F1.2°C 14.5°F-9.7°C 44% Calm Calm -- 30.03 in1016.9 mb - 0.00 in0.0 mm 0.00 in0.0 mm
12:50 AM 34.1°F1.2°C 14.4°F-9.8°C 44% Calm Calm -- 30.03 in1016.9 mb - 0.00 in0.0 mm 0.00 in0.0 mm
01:00 AM 34.1°F1.2°C 14.4°F-9.8°C 44% Calm Calm -- 30.03 in1016.9 mb - 0.00 in0.0 mm 0.00 in0.0 mm
01:10 AM 34.0°F1.1°C 14.9°F-9.5°C 45% Calm Calm -- 30.02 in1016.6 mb - 0.00 in0.0 mm 0.00 in0.0 mm
01:20 AM 34.0°F1.1°C 14.3°F-9.8°C 44% Calm Calm -- 30.03 in1016.9 mb - 0.00 in0.0 mm 0.00 in0.0 mm
01:30 AM 33.8°F1.0°C 14.1°F-9.9°C 44% Calm Calm -- 30.03 in1016.9 mb - 0.00 in0.0 mm 0.00 in0.0 mm
01:40 AM 33.4°F0.8°C 13.8°F-10.1°C 44% Calm Calm -- 30.03 in1016.9 mb - 0.00 in0.0 mm 0.00 in0.0 mm
01:50 AM 32.7°F0.4°C 13.7°F-10.2°C 45% Calm Calm -- 30.03 in1016.9 mb - 0.00 in0.0 mm 0.00 in0.0 mm
02:00 AM 32.2°F0.1°C 13.2°F-10.4°C 45% Calm Calm -- 30.03 in1016.9 mb - 0.00 in0.0 mm 0.00 in0.0 mm
02:10 AM 31.5°F-0.3°C 13.6°F-10.2°C 47% Calm Calm -- 30.03 in1016.9 mb - 0.00 in0.0 mm 0.00 in0.0 mm
02:20 AM 31.1°F-0.5°C 13.2°F-10.4°C 47% Calm Calm -- 30.03 in1016.9 mb - 0.00 in0.0 mm 0.00 in0.0 mm
02:30 AM 30.5°F-0.8°C 13.1°F-10.5°C 48% Calm Calm -- 30.03 in1016.9 mb - 0.00 in0.0 mm 0.00 in0.0 mm
02:40 AM 30.1°F-1.1°C 13.2°F-10.4°C 49% Calm Calm -- 30.03 in1016.9 mb - 0.00 in0.0 mm 0.00 in0.0 mm
02:50 AM 29.9°F-1.2°C 13.0°F-10.6°C 49% Calm Calm -- 30.03 in1016.9 mb - 0.00 in0.0 mm 0.00 in0.0 mm
03:00 AM 29.7°F-1.3°C 13.3°F-10.4°C 50% Calm Calm -- 30.03 in1016.9 mb - 0.00 in0.0 mm 0.00 in0.0 mm
03:10 AM 29.6°F-1.3°C 13.2°F-10.4°C 50% Calm Calm 1.2 mph1.9 kmh 30.03 in1016.9 mb - 0.00 in0.0 mm 0.00 in0.0 mm
03:20 AM 29.7°F-1.3°C 13.3°F-10.4°C 50% Calm Calm 1.2 mph1.9 kmh 30.03 in1016.9 mb - 0.00 in0.0 mm 0.00 in0.0 mm
03:30 AM 29.6°F-1.3°C 13.2°F-10.4°C 50% Calm Calm -- 30.02 in1016.6 mb - 0.00 in0.0 mm 0.00 in0.0 mm
03:40 AM 29.3°F-1.5°C 12.9°F-10.6°C 50% Calm Calm -- 30.02 in1016.6 mb - 0.00 in0.0 mm 0.00 in0.0 mm
03:50 AM 28.9°F-1.7°C 13.0°F-10.6°C 51% Calm Calm -- 30.02 in1016.6 mb - 0.00 in0.0 mm 0.00 in0.0 mm
04:00 AM 28.6°F-1.9°C 12.7°F-10.7°C 51% Calm Calm -- 30.02 in1016.6 mb - 0.00 in0.0 mm 0.00 in0.0 mm
04:10 AM 28.5°F-1.9°C 13.0°F-10.6°C 52% Calm Calm -- 30.02 in1016.6 mb - 0.00 in0.0 mm 0.00 in0.0 mm
04:30 AM 29.2°F-1.6°C 13.7°F-10.2°C 52% Calm Calm -- 30.02 in1016.6 mb - 0.00 in0.0 mm 0.00 in0.0 mm
04:40 AM 29.2°F-1.6°C 13.3°F-10.4°C 51% Calm Calm -- 30.02 in1016.6 mb - 0.00 in0.0 mm 0.00 in0.0 mm
04:50 AM 29.0°F-1.7°C 13.1°F-10.5°C 51% Calm Calm -- 30.02 in1016.6 mb - 0.00 in0.0 mm 0.00 in0.0 mm
05:00 AM 28.7°F-1.8°C 13.2°F-10.4°C 52% Calm Calm -- 30.02 in1016.6 mb - 0.00 in0.0 mm 0.00 in0.0 mm
05:10 AM 28.5°F-1.9°C 13.1°F-10.5°C 52% Calm Calm -- 30.02 in1016.6 mb - 0.00 in0.0 mm 0.00 in0.0 mm
05:20 AM 28.3°F-2.1°C 13.3°F-10.4°C 53% Calm Calm -- 30.02 in1016.6 mb - 0.00 in0.0 mm 0.00 in0.0 mm
05:30 AM 28.0°F-2.2°C 13.5°F-10.3°C 54% Calm Calm -- 30.02 in1016.6 mb - 0.00 in0.0 mm 0.00 in0.0 mm
05:40 AM 28.0°F-2.2°C 13.5°F-10.3°C 54% Calm Calm -- 30.02 in1016.6 mb - 0.00 in0.0 mm 0.00 in0.0 mm
05:50 AM 27.9°F-2.3°C 13.3°F-10.4°C 54% Calm Calm -- 30.02 in1016.6 mb - 0.00 in0.0 mm 0.00 in0.0 mm
06:00 AM 27.6°F-2.4°C 13.1°F-10.5°C 54% Calm Calm -- 30.02 in1016.6 mb - 0.00 in0.0 mm 0.00 in0.0 mm
06:10 AM 27.3°F-2.6°C 13.2°F-10.4°C 55% Calm Calm -- 30.02 in1016.6 mb - 0.00 in0.0 mm 0.00 in0.0 mm
06:20 AM 27.1°F-2.7°C 13.1°F-10.5°C 55% Calm Calm -- 30.02 in1016.6 mb - 0.00 in0.0 mm 0.00 in0.0 mm
06:30 AM 27.0°F-2.8°C 13.4°F-10.3°C 56% Calm Calm 1.2 mph1.9 kmh 30.02 in1016.6 mb - 0.00 in0.0 mm 0.00 in0.0 mm
06:40 AM 27.0°F-2.8°C 13.0°F-10.6°C 55% Calm Calm 1.2 mph1.9 kmh 30.02 in1016.6 mb - 0.00 in0.0 mm 0.00 in0.0 mm
06:50 AM 27.0°F-2.8°C 13.0°F-10.6°C 55% Calm Calm -- 30.02 in1016.6 mb - 0.00 in0.0 mm 0.00 in0.0 mm
07:00 AM 27.0°F-2.8°C 13.0°F-10.6°C 55% Calm Calm 1.2 mph1.9 kmh 30.03 in1016.9 mb - 0.00 in0.0 mm 0.00 in0.0 mm
07:10 AM 27.0°F-2.8°C 13.4°F-10.3°C 56% Calm Calm -- 30.03 in1016.9 mb - 0.00 in0.0 mm 0.00 in0.0 mm
07:20 AM 26.9°F-2.8°C 13.3°F-10.4°C 56% Calm Calm -- 30.03 in1016.9 mb - 0.00 in0.0 mm 0.00 in0.0 mm
07:30 AM 26.8°F-2.9°C 13.2°F-10.4°C 56% Calm Calm -- 30.03 in1016.9 mb - 0.00 in0.0 mm 0.00 in0.0 mm
07:40 AM 26.8°F-2.9°C 13.2°F-10.4°C 56% Calm Calm -- 30.03 in1016.9 mb - 0.00 in0.0 mm 0.00 in0.0 mm
07:50 AM 27.3°F-2.6°C 13.6°F-10.2°C 56% Calm Calm -- 30.03 in1016.9 mb - 0.00 in0.0 mm 0.00 in0.0 mm
08:00 AM 28.3°F-2.1°C 14.2°F-9.9°C 55% Calm Calm 2.3 mph3.7 kmh 30.03 in1016.9 mb - 0.00 in0.0 mm 0.00 in0.0 mm
08:10 AM 29.5°F-1.4°C 14.4°F-9.8°C 53% Calm Calm 3.5 mph5.6 kmh 30.04 in1017.3 mb - 0.00 in0.0 mm 0.00 in0.0 mm
08:20 AM 31.4°F-0.3°C 15.3°F-9.3°C 51% Calm Calm 1.2 mph1.9 kmh 30.04 in1017.3 mb - 0.00 in0.0 mm 0.00 in0.0 mm
08:30 AM 31.9°F-0.1°C 14.9°F-9.5°C 49% Calm Calm 1.2 mph1.9 kmh 30.04 in1017.3 mb - 0.00 in0.0 mm 0.00 in0.0 mm
08:40 AM 32.6°F0.3°C 15.0°F-9.4°C 48% 1.2 mph WNW1.9 kmh WNW 3.5 mph5.6 kmh 30.04 in1017.3 mb - 0.00 in0.0 mm 0.00 in0.0 mm
08:50 AM 33.6°F0.9°C 15.5°F-9.2°C 47% 1.2 mph NW1.9 kmh NW 1.2 mph1.9 kmh 30.04 in1017.3 mb - 0.00 in0.0 mm 0.00 in0.0 mm
09:00 AM 34.7°F1.5°C 15.5°F-9.2°C 45% Calm Calm 3.5 mph5.6 kmh 30.04 in1017.3 mb - 0.00 in0.0 mm 0.00 in0.0 mm
09:10 AM 35.8°F2.1°C 16.0°F-8.9°C 44% 1.2 mph NW1.9 kmh NW 3.5 mph5.6 kmh 30.04 in1017.3 mb - 0.00 in0.0 mm 0.00 in0.0 mm
09:20 AM 36.6°F2.6°C 15.6°F-9.1°C 42% 1.2 mph NW1.9 kmh NW 2.3 mph3.7 kmh 30.04 in1017.3 mb - 0.00 in0.0 mm 0.00 in0.0 mm
09:30 AM 38.0°F3.3°C 16.3°F-8.7°C 41% Calm Calm 3.5 mph5.6 kmh 30.04 in1017.3 mb - 0.00 in0.0 mm 0.00 in0.0 mm
09:40 AM 39.2°F4.0°C 16.3°F-8.7°C 39% 2.3 mph NW3.7 kmh NW 4.6 mph7.4 kmh 30.03 in1016.9 mb - 0.00 in0.0 mm 0.00 in0.0 mm
09:50 AM 40.4°F4.7°C 16.2°F-8.8°C 37% Calm Calm -- 30.03 in1016.9 mb - 0.00 in0.0 mm 0.00 in0.0 mm
10:00 AM 42.2°F5.7°C 17.1°F-8.3°C 36% Calm Calm -- 30.03 in1016.9 mb - 0.00 in0.0 mm 0.00 in0.0 mm
10:10 AM 43.7°F6.5°C 17.1°F-8.3°C 34% Calm Calm -- 30.03 in1016.9 mb - 0.00 in0.0 mm 0.00 in0.0 mm
10:20 AM 45.1°F7.3°C 17.0°F-8.3°C 32% Calm Calm -- 30.02 in1016.6 mb - 0.00 in0.0 mm 0.00 in0.0 mm
10:30 AM 47.1°F8.4°C 18.0°F-7.8°C 31% Calm Calm -- 30.02 in1016.6 mb - 0.00 in0.0 mm 0.00 in0.0 mm
10:40 AM 48.2°F9.0°C 17.4°F-8.1°C 29% Calm Calm -- 30.02 in1016.6 mb - 0.00 in0.0 mm 0.00 in0.0 mm
10:50 AM 49.5°F9.7°C 17.7°F-7.9°C 28% Calm Calm -- 30.01 in1016.3 mb - 0.00 in0.0 mm 0.00 in0.0 mm
11:00 AM 49.5°F9.7°C 17.7°F-7.9°C 28% Calm Calm -- 30.01 in1016.3 mb - 0.00 in0.0 mm 0.00 in0.0 mm
11:10 AM 50.3°F10.2°C 17.6°F-8.0°C 27% Calm Calm 3.5 mph5.6 kmh 30.00 in1015.9 mb - 0.00 in0.0 mm 0.00 in0.0 mm
11:20 AM 50.9°F10.5°C 17.2°F-8.2°C 26% 2.3 mph SE3.7 kmh SE 3.5 mph5.6 kmh 30.00 in1015.9 mb - 0.00 in0.0 mm 0.00 in0.0 mm
11:30 AM 51.1°F10.6°C 17.3°F-8.2°C 26% 1.2 mph S1.9 kmh S 3.5 mph5.6 kmh 29.99 in1015.6 mb - 0.00 in0.0 mm 0.00 in0.0 mm
11:40 AM 51.7°F10.9°C 17.9°F-7.8°C 26% 2.3 mph SE3.7 kmh SE 3.5 mph5.6 kmh 29.98 in1015.2 mb - 0.00 in0.0 mm 0.00 in0.0 mm
11:50 AM 52.0°F11.1°C 18.1°F-7.7°C 26% 2.3 mph SE3.7 kmh SE 5.8 mph9.3 kmh 29.98 in1015.2 mb - 0.00 in0.0 mm 0.00 in0.0 mm
12:00 PM 53.1°F11.7°C 18.2°F-7.7°C 25% 1.2 mph SSE1.9 kmh SSE 3.5 mph5.6 kmh 29.97 in1014.9 mb - 0.00 in0.0 mm 0.00 in0.0 mm
12:10 PM 52.9°F11.6°C 18.0°F-7.8°C 25% 1.2 mph SSE1.9 kmh SSE 5.8 mph9.3 kmh 29.96 in1014.6 mb - 0.00 in0.0 mm 0.00 in0.0 mm
12:20 PM 53.5°F11.9°C 18.5°F-7.5°C 25% 1.2 mph S1.9 kmh S 4.6 mph7.4 kmh 29.96 in1014.6 mb - 0.00 in0.0 mm 0.00 in0.0 mm
12:30 PM 53.9°F12.2°C 18.9°F-7.3°C 25% 1.2 mph SE1.9 kmh SE 2.3 mph3.7 kmh 29.95 in1014.2 mb - 0.00 in0.0 mm 0.00 in0.0 mm
12:40 PM 54.8°F12.7°C 18.7°F-7.4°C 24% 3.5 mph S5.6 kmh S 6.9 mph11.1 kmh 29.94 in1013.9 mb - 0.00 in0.0 mm 0.00 in0.0 mm
12:50 PM 55.0°F12.8°C 17.8°F-7.9°C 23% 3.5 mph S5.6 kmh S 6.9 mph11.1 kmh 29.93 in1013.5 mb - 0.00 in0.0 mm 0.00 in0.0 mm
01:00 PM 55.3°F12.9°C 19.0°F-7.2°C 24% Calm Calm 4.6 mph7.4 kmh 29.93 in1013.5 mb - 0.00 in0.0 mm 0.00 in0.0 mm
01:10 PM 55.4°F13.0°C 18.2°F-7.7°C 23% 1.2 mph SSE1.9 kmh SSE 3.5 mph5.6 kmh 29.92 in1013.2 mb - 0.00 in0.0 mm 0.00 in0.0 mm
01:20 PM 55.7°F13.2°C 18.5°F-7.5°C 23% 1.2 mph S1.9 kmh S 3.5 mph5.6 kmh 29.92 in1013.2 mb - 0.00 in0.0 mm 0.00 in0.0 mm
01:30 PM 55.3°F12.9°C 18.1°F-7.7°C 23% Calm Calm -- 29.91 in1012.9 mb - 0.00 in0.0 mm 0.00 in0.0 mm
01:40 PM 55.4°F13.0°C 19.2°F-7.1°C 24% Calm Calm 2.3 mph3.7 kmh 29.90 in1012.5 mb - 0.00 in0.0 mm 0.00 in0.0 mm
01:50 PM 55.6°F13.1°C 18.3°F-7.6°C 23% Calm Calm 2.3 mph3.7 kmh 29.90 in1012.5 mb - 0.00 in0.0 mm 0.00 in0.0 mm
02:00 PM 56.5°F13.6°C 19.1°F-7.2°C 23% 1.2 mph SE1.9 kmh SE 3.5 mph5.6 kmh 29.89 in1012.2 mb - 0.00 in0.0 mm 0.00 in0.0 mm
02:10 PM 56.8°F13.8°C 19.3°F-7.1°C 23% Calm Calm -- 29.89 in1012.2 mb - 0.00 in0.0 mm 0.00 in0.0 mm
02:20 PM 56.9°F13.8°C 19.4°F-7.0°C 23% Calm Calm 3.5 mph5.6 kmh 29.88 in1011.9 mb - 0.00 in0.0 mm 0.00 in0.0 mm
02:30 PM 57.3°F14.1°C 18.7°F-7.4°C 22% Calm Calm 3.5 mph5.6 kmh 29.87 in1011.5 mb - 0.00 in0.0 mm 0.00 in0.0 mm
02:40 PM 58.3°F14.6°C 19.6°F-6.9°C 22% 1.2 mph SE1.9 kmh SE 4.6 mph7.4 kmh 29.87 in1011.5 mb - 0.00 in0.0 mm 0.00 in0.0 mm
02:50 PM 58.9°F14.9°C 20.1°F-6.6°C 22% 2.3 mph SE3.7 kmh SE 3.5 mph5.6 kmh 29.87 in1011.5 mb - 0.00 in0.0 mm 0.00 in0.0 mm
03:00 PM 58.8°F14.9°C 18.9°F-7.3°C 21% 1.2 mph SSE1.9 kmh SSE 2.3 mph3.7 kmh 29.87 in1011.5 mb - 0.00 in0.0 mm 0.00 in0.0 mm
03:10 PM 59.6°F15.3°C 19.6°F-6.9°C 21% 2.3 mph SE3.7 kmh SE 3.5 mph5.6 kmh 29.87 in1011.5 mb - 0.00 in0.0 mm 0.00 in0.0 mm
03:20 PM 60.0°F15.6°C 19.9°F-6.7°C 21% Calm Calm 2.3 mph3.7 kmh 29.87 in1011.5 mb - 0.00 in0.0 mm 0.00 in0.0 mm
03:30 PM 59.4°F15.2°C 19.4°F-7.0°C 21% 2.3 mph SSW3.7 kmh SSW 3.5 mph5.6 kmh 29.86 in1011.2 mb - 0.00 in0.0 mm 0.00 in0.0 mm
03:40 PM 59.6°F15.3°C 19.6°F-6.9°C 21% Calm Calm 3.5 mph5.6 kmh 29.86 in1011.2 mb - 0.00 in0.0 mm 0.00 in0.0 mm
03:50 PM 59.3°F15.2°C 19.3°F-7.1°C 21% 1.2 mph S1.9 kmh S 3.5 mph5.6 kmh 29.86 in1011.2 mb - 0.00 in0.0 mm 0.00 in0.0 mm
04:00 PM 59.0°F15.0°C 19.1°F-7.2°C 21% Calm Calm -- 29.86 in1011.2 mb - 0.00 in0.0 mm 0.00 in0.0 mm
04:10 PM 59.1°F15.1°C 19.2°F-7.1°C 21% Calm Calm -- 29.86 in1011.2 mb - 0.00 in0.0 mm 0.00 in0.0 mm
04:20 PM 58.6°F14.8°C 19.8°F-6.8°C 22% Calm Calm -- 29.86 in1011.2 mb - 0.00 in0.0 mm 0.00 in0.0 mm
04:30 PM 58.4°F14.7°C 19.7°F-6.8°C 22% Calm Calm -- 29.86 in1011.2 mb - 0.00 in0.0 mm 0.00 in0.0 mm
04:40 PM 58.5°F14.7°C 19.7°F-6.8°C 22% Calm Calm -- 29.86 in1011.2 mb - 0.00 in0.0 mm 0.00 in0.0 mm
04:50 PM 58.8°F14.9°C 20.0°F-6.7°C 22% Calm Calm -- 29.85 in1010.8 mb - 0.00 in0.0 mm 0.00 in0.0 mm
05:00 PM 58.7°F14.8°C 19.9°F-6.7°C 22% Calm Calm -- 29.85 in1010.8 mb - 0.00 in0.0 mm 0.00 in0.0 mm
05:10 PM 58.2°F14.6°C 20.5°F-6.4°C 23% Calm Calm -- 29.84 in1010.5 mb - 0.00 in0.0 mm 0.00 in0.0 mm
05:20 PM 57.4°F14.1°C 19.9°F-6.7°C 23% Calm Calm -- 29.84 in1010.5 mb - 0.00 in0.0 mm 0.00 in0.0 mm
05:30 PM 56.5°F13.6°C 20.1°F-6.6°C 24% Calm Calm -- 29.84 in1010.5 mb - 0.00 in0.0 mm 0.00 in0.0 mm
05:40 PM 55.6°F13.1°C 20.3°F-6.5°C 25% Calm Calm -- 29.84 in1010.5 mb - 0.00 in0.0 mm 0.00 in0.0 mm
05:50 PM 54.6°F12.6°C 19.4°F-7.0°C 25% Calm Calm -- 29.84 in1010.5 mb - 0.00 in0.0 mm 0.00 in0.0 mm
06:00 PM 53.9°F12.2°C 19.8°F-6.8°C 26% Calm Calm -- 29.84 in1010.5 mb - 0.00 in0.0 mm 0.00 in0.0 mm
06:10 PM 53.5°F11.9°C 19.4°F-7.0°C 26% Calm Calm -- 29.84 in1010.5 mb - 0.00 in0.0 mm 0.00 in0.0 mm
06:20 PM 53.3°F11.8°C 19.3°F-7.1°C 26% Calm Calm -- 29.84 in1010.5 mb - 0.00 in0.0 mm 0.00 in0.0 mm
06:30 PM 54.4°F12.4°C 19.3°F-7.1°C 25% Calm Calm 2.3 mph3.7 kmh 29.83 in1010.2 mb - 0.00 in0.0 mm 0.00 in0.0 mm
06:40 PM 55.2°F12.9°C 19.9°F-6.7°C 25% 3.5 mph SE5.6 kmh SE 6.9 mph11.1 kmh 29.83 in1010.2 mb - 0.00 in0.0 mm 0.00 in0.0 mm
06:50 PM 55.2°F12.9°C 20.0°F-6.7°C 25% Calm Calm 1.2 mph1.9 kmh 29.83 in1010.2 mb - 0.00 in0.0 mm 0.00 in0.0 mm
07:00 PM 55.6°F13.1°C 20.3°F-6.5°C 25% 1.2 mph SSE1.9 kmh SSE 5.8 mph9.3 kmh 29.83 in1010.2 mb - 0.00 in0.0 mm 0.00 in0.0 mm
07:10 PM 56.0°F13.3°C 21.6°F-5.8°C 26% 4.6 mph S7.4 kmh S 10.4 mph16.7 kmh 29.82 in1009.8 mb - 0.00 in0.0 mm 0.00 in0.0 mm
07:20 PM 55.6°F13.1°C 22.1°F-5.5°C 27% 2.3 mph S3.7 kmh S 3.5 mph5.6 kmh 29.82 in1009.8 mb - 0.00 in0.0 mm 0.00 in0.0 mm
07:30 PM 55.4°F13.0°C 21.9°F-5.6°C 27% 1.2 mph SSE1.9 kmh SSE 3.5 mph5.6 kmh 29.82 in1009.8 mb - 0.00 in0.0 mm 0.00 in0.0 mm
07:40 PM 55.4°F13.0°C 22.8°F-5.1°C 28% 1.2 mph S1.9 kmh S 2.3 mph3.7 kmh 29.82 in1009.8 mb - 0.00 in0.0 mm 0.00 in0.0 mm
07:50 PM 54.9°F12.7°C 23.2°F-4.9°C 29% 1.2 mph S1.9 kmh S 2.3 mph3.7 kmh 29.82 in1009.8 mb - 0.00 in0.0 mm 0.00 in0.0 mm
08:00 PM 53.9°F12.2°C 21.5°F-5.8°C 28% 4.6 mph SE7.4 kmh SE 12.7 mph20.4 kmh 29.82 in1009.8 mb - 0.00 in0.0 mm 0.00 in0.0 mm
08:10 PM 54.0°F12.2°C 22.5°F-5.3°C 29% 1.2 mph SSE1.9 kmh SSE 6.9 mph11.1 kmh 29.82 in1009.8 mb - 0.00 in0.0 mm 0.00 in0.0 mm
08:20 PM 53.7°F12.1°C 23.0°F-5.0°C 30% Calm Calm 4.6 mph7.4 kmh 29.82 in1009.8 mb - 0.00 in0.0 mm 0.00 in0.0 mm
08:30 PM 53.3°F11.8°C 23.4°F-4.8°C 31% 1.2 mph S1.9 kmh S 3.5 mph5.6 kmh 29.82 in1009.8 mb - 0.00 in0.0 mm 0.00 in0.0 mm
08:40 PM 53.0°F11.7°C 23.1°F-4.9°C 31% Calm Calm 2.3 mph3.7 kmh 29.82 in1009.8 mb - 0.00 in0.0 mm 0.00 in0.0 mm
08:50 PM 52.5°F11.4°C 23.5°F-4.7°C 32% 1.2 mph SSE1.9 kmh SSE 3.5 mph5.6 kmh 29.82 in1009.8 mb - 0.00 in0.0 mm 0.00 in0.0 mm
09:00 PM 52.1°F11.2°C 23.1°F-4.9°C 32% Calm Calm 2.3 mph3.7 kmh 29.82 in1009.8 mb - 0.00 in0.0 mm 0.00 in0.0 mm
09:10 PM 51.7°F10.9°C 22.0°F-5.6°C 31% 1.2 mph SE1.9 kmh SE 3.5 mph5.6 kmh 29.82 in1009.8 mb - 0.00 in0.0 mm 0.00 in0.0 mm
09:20 PM 51.4°F10.8°C 22.5°F-5.3°C 32% 2.3 mph SE3.7 kmh SE 6.9 mph11.1 kmh 29.81 in1009.5 mb - 0.00 in0.0 mm 0.00 in0.0 mm
09:30 PM 51.2°F10.7°C 22.3°F-5.4°C 32% 1.2 mph SE1.9 kmh SE 3.5 mph5.6 kmh 29.81 in1009.5 mb - 0.00 in0.0 mm 0.00 in0.0 mm
09:40 PM 50.8°F10.4°C 22.7°F-5.2°C 33% Calm Calm -- 29.81 in1009.5 mb - 0.00 in0.0 mm 0.00 in0.0 mm
09:50 PM 50.6°F10.3°C 23.2°F-4.9°C 34% Calm Calm -- 29.81 in1009.5 mb - 0.00 in0.0 mm 0.00 in0.0 mm
10:00 PM 50.5°F10.3°C 23.1°F-4.9°C 34% Calm Calm 1.2 mph1.9 kmh 29.81 in1009.5 mb - 0.00 in0.0 mm 0.00 in0.0 mm
10:10 PM 50.4°F10.2°C 23.1°F-4.9°C 34% Calm Calm -- 29.80 in1009.1 mb - 0.00 in0.0 mm 0.00 in0.0 mm
10:20 PM 50.6°F10.3°C 23.3°F-4.8°C 34% 1.2 mph S1.9 kmh S 4.6 mph7.4 kmh 29.82 in1009.8 mb - 0.00 in0.0 mm 0.00 in0.0 mm
10:30 PM 50.6°F10.3°C 27.1°F-2.7°C 40% 13.8 mph SW22.2 kmh SW 23.0 mph37.0 kmh 29.83 in1010.2 mb - 0.00 in0.0 mm 0.00 in0.0 mm
10:40 PM 47.7°F8.7°C 33.2°F0.7°C 57% 6.9 mph SW11.1 kmh SW 11.5 mph18.5 kmh 29.84 in1010.5 mb - 0.00 in0.0 mm 0.00 in0.0 mm
10:50 PM 46.7°F8.2°C 34.0°F1.1°C 61% 12.7 mph SW20.4 kmh SW 19.6 mph31.5 kmh 29.85 in1010.8 mb - 0.00 in0.0 mm 0.00 in0.0 mm
11:00 PM 46.0°F7.8°C 34.1°F1.2°C 63% 2.3 mph SW3.7 kmh SW 11.5 mph18.5 kmh 29.86 in1011.2 mb - 0.00 in0.0 mm 0.00 in0.0 mm
11:10 PM 42.3°F5.7°C 32.4°F0.2°C 68% 9.2 mph W14.8 kmh W 15.0 mph24.1 kmh 29.86 in1011.2 mb - 0.00 in0.0 mm 0.00 in0.0 mm
11:20 PM 39.7°F4.3°C 32.7°F0.4°C 76% 8.1 mph W13.0 kmh W 11.5 mph18.5 kmh 29.88 in1011.9 mb - 0.00 in0.0 mm 0.00 in0.0 mm
11:30 PM 38.9°F3.8°C 33.3°F0.7°C 80% 3.5 mph WNW5.6 kmh WNW 3.5 mph5.6 kmh 29.89 in1012.2 mb - 0.00 in0.0 mm 0.00 in0.0 mm
11:40 PM 38.6°F3.7°C 33.3°F0.7°C 81% 1.2 mph W1.9 kmh W 9.2 mph14.8 kmh 29.90 in1012.5 mb - 0.00 in0.0 mm 0.00 in0.0 mm
11:50 PM 37.4°F3.0°C 32.7°F0.4°C 83% 3.5 mph NW5.6 kmh NW 4.6 mph7.4 kmh 29.91 in1012.9 mb - 0.00 in0.0 mm 0.00 in0.0 mm